Terminal Aerodrome Forecast
Issued by NWS Twin Cities, MN

Home | Current Version | Previous Version | Graphics & Text | Print | Product List | Glossary On
Versions: 1 2 3 4 5 6 7 8 9 10 11 12 13 14 15 16 17 18 19
000
FTUS43 KMPX 241713 AAA
TAFEAU
TAF AMD
KEAU 241713Z 2417/2512 25006KT P6SM FEW010 BKN120
     FM250200 VRB03KT P6SM OVC020
     FM250500 05006KT 6SM -SN OVC012
      TEMPO 2505/2508 3SM -SN=

USA.gov is the U.S. government's official web portal to all federal, state and local government web resources and services.